createdAt,value
2018-04-09T00:02:09.934Z,8.73
2018-04-09T00:04:37.463Z,9.50
2018-04-09T00:07:04.958Z,8.50
2018-04-09T00:09:33.258Z,9.80
2018-04-09T00:12:00.758Z,8.73
2018-04-09T00:14:28.293Z,9.30
2018-04-09T00:16:55.797Z,8.93
2018-04-09T00:19:23.333Z,9.43
2018-04-09T00:21:50.837Z,8.80
2018-04-09T00:24:18.381Z,9.27
2018-04-09T00:26:45.884Z,9.30
2018-04-09T00:29:13.388Z,8.70
2018-04-09T00:31:40.949Z,9.07
2018-04-09T00:34:09.214Z,9.60
2018-04-09T00:36:36.748Z,10.23
2018-04-09T00:39:04.264Z,9.60
2018-04-09T00:41:32.554Z,9.40
2018-04-09T00:44:00.049Z,9.53
2018-04-09T00:46:27.576Z,9.60
2018-04-09T00:48:55.085Z,9.90
2018-04-09T00:51:22.597Z,10.53
2018-04-09T00:54:00.119Z,10.70
2018-04-09T00:56:27.643Z,9.53
2018-04-09T00:58:55.154Z,9.97
2018-04-09T01:01:22.672Z,9.80
2018-04-09T01:03:50.177Z,10.03
2018-04-09T01:06:17.680Z,9.17
2018-04-09T01:08:45.216Z,9.40
2018-04-09T01:11:13.497Z,9.37
2018-04-09T01:13:41.796Z,9.87
2018-04-09T01:16:09.325Z,10.13
2018-04-09T01:18:36.827Z,9.97
2018-04-09T01:21:04.365Z,9.60
2018-04-09T01:23:31.873Z,9.73
2018-04-09T01:26:00.912Z,9.20
2018-04-09T01:28:28.414Z,10.40
2018-04-09T01:30:55.948Z,10.97
2018-04-09T01:33:23.489Z,10.30
2018-04-09T01:35:51.007Z,11.50
2018-04-09T01:38:18.541Z,10.60
2018-04-09T01:40:46.040Z,9.87
2018-04-09T01:43:14.343Z,10.03
2018-04-09T01:45:41.883Z,9.30
2018-04-09T01:48:09.412Z,10.43
2018-04-09T01:50:36.925Z,9.70
2018-04-09T01:53:04.423Z,9.80
2018-04-09T01:55:31.968Z,10.67
2018-04-09T01:57:59.467Z,9.07
2018-04-09T02:00:26.992Z,9.77
2018-04-09T02:02:54.488Z,10.33
2018-04-09T02:05:22.035Z,10.47
2018-04-09T02:07:50.337Z,9.80
2018-04-09T02:10:17.856Z,10.10
2018-04-09T02:12:46.186Z,9.87
2018-04-09T02:15:13.704Z,11.60
2018-04-09T02:17:42.008Z,9.50
2018-04-09T02:20:09.557Z,10.50
2018-04-09T02:22:37.063Z,10.10
2018-04-09T02:25:04.572Z,10.60
2018-04-09T02:27:32.104Z,10.37
2018-04-09T02:30:00.370Z,11.30
2018-04-09T02:32:28.677Z,11.00
2018-04-09T02:34:56.219Z,10.10
2018-04-09T02:37:24.524Z,11.00
2018-04-09T02:39:52.042Z,11.20
2018-04-09T02:42:20.338Z,11.30
2018-04-09T02:44:47.876Z,10.20
2018-04-09T02:47:16.152Z,10.27
2018-04-09T02:49:44.441Z,10.73
2018-04-09T02:52:12.712Z,11.50
2018-04-09T02:54:41.004Z,10.57
2018-04-09T02:57:08.523Z,10.83
2018-04-09T02:59:36.817Z,10.30
2018-04-09T03:02:05.088Z,10.70
2018-04-09T03:04:33.452Z,10.30
2018-04-09T03:07:00.960Z,12.50
2018-04-09T03:09:28.502Z,11.40
2018-04-09T03:11:55.999Z,10.93
2018-04-09T03:14:23.516Z,12.40
2018-04-09T03:16:51.057Z,11.20
2018-04-09T03:19:19.343Z,11.73
2018-04-09T03:21:46.879Z,11.47
2018-04-09T03:24:14.376Z,11.43
2018-04-09T03:26:41.904Z,10.40
2018-04-09T03:29:10.195Z,11.00
2018-04-09T03:31:37.698Z,11.60
2018-04-09T03:34:05.208Z,11.03
2018-04-09T03:36:32.733Z,11.10
2018-04-09T03:39:01.742Z,11.47
2018-04-09T03:41:30.036Z,11.47
2018-04-09T03:43:57.546Z,11.53
2018-04-09T03:46:25.098Z,11.97
2018-04-09T03:48:52.655Z,11.40
2018-04-09T03:51:20.164Z,12.00
2018-04-09T03:53:47.701Z,12.00
2018-04-09T03:56:15.204Z,11.90
2018-04-09T03:58:42.745Z,12.57
2018-04-09T04:01:10.275Z,10.77
2018-04-09T04:03:37.996Z,12.37
2018-04-09T04:06:05.503Z,12.73
2018-04-09T04:08:33.814Z,13.00
2018-04-09T04:11:01.339Z,12.23
2018-04-09T04:13:29.655Z,11.10
2018-04-09T04:16:09.020Z,11.53
2018-04-09T04:18:49.378Z,11.67
2018-04-09T04:21:28.591Z,11.03
2018-04-09T04:23:56.130Z,13.20
2018-04-09T04:26:23.638Z,10.80
2018-04-09T04:28:51.942Z,11.30
2018-04-09T04:31:19.437Z,11.20
2018-04-09T04:33:46.942Z,11.00
2018-04-09T04:36:15.236Z,11.43
2018-04-09T04:38:42.773Z,12.87
2018-04-09T04:41:10.316Z,11.70
2018-04-09T04:43:37.827Z,12.43
2018-04-09T04:46:05.351Z,11.87
2018-04-09T04:48:33.625Z,12.13
2018-04-09T04:51:01.929Z,10.90
2018-04-09T04:53:29.420Z,11.67
2018-04-09T04:55:56.947Z,11.80
2018-04-09T04:58:24.451Z,11.10
2018-04-09T05:00:52.768Z,11.67
2018-04-09T05:03:20.320Z,12.00
2018-04-09T05:05:48.580Z,11.90
2018-04-09T05:08:16.159Z,12.60
2018-04-09T05:10:43.706Z,11.57
2018-04-09T05:13:12.023Z,11.03
2018-04-09T05:15:39.526Z,12.30
2018-04-09T05:18:07.821Z,12.70
2018-04-09T05:20:35.404Z,12.03
2018-04-09T05:23:03.659Z,13.30
2018-04-09T05:25:31.169Z,11.50
2018-04-09T05:27:58.720Z,13.80
2018-04-09T05:30:26.240Z,12.93
2018-04-09T05:32:53.747Z,13.63
2018-04-09T05:35:21.338Z,12.53
2018-04-09T05:37:49.602Z,12.70
2018-04-09T05:40:17.915Z,12.83
2018-04-09T05:42:45.422Z,13.20
2018-04-09T05:45:12.980Z,13.37
2018-04-09T05:47:42.018Z,13.83
2018-04-09T05:50:09.580Z,13.03
2018-04-09T05:52:37.084Z,13.00
2018-04-09T05:55:06.120Z,13.60
2018-04-09T05:57:33.623Z,14.03
2018-04-09T06:00:01.160Z,14.27
2018-04-09T06:02:28.680Z,13.13
2018-04-09T06:04:57.000Z,14.50
2018-04-09T06:07:24.500Z,15.00
2018-04-09T06:09:52.008Z,13.97
2018-04-09T06:12:19.536Z,15.10
2018-04-09T06:14:47.391Z,15.30
2018-04-09T06:17:15.676Z,13.27
2018-04-09T06:19:43.187Z,13.93
2018-04-09T06:22:10.723Z,15.07
2018-04-09T06:24:38.236Z,13.40
2018-04-09T06:27:06.527Z,14.53
2018-04-09T06:29:34.040Z,13.90
2018-04-09T06:32:01.572Z,14.30
2018-04-09T06:34:29.086Z,14.30
2018-04-09T06:36:57.407Z,13.60
2018-04-09T06:39:24.916Z,13.03
2018-04-09T06:41:53.216Z,13.70
2018-04-09T06:44:20.731Z,14.07
2018-04-09T06:46:48.256Z,13.80
2018-04-09T06:49:15.788Z,13.60
2018-04-09T06:51:43.329Z,14.30
2018-04-09T06:54:11.625Z,15.80
2018-04-09T06:56:39.143Z,13.90
2018-04-09T06:59:06.665Z,13.67
2018-04-09T07:01:34.158Z,14.50
2018-04-09T07:04:02.447Z,16.73
2018-04-09T07:06:30.716Z,15.70
2018-04-09T07:08:59.038Z,14.27
2018-04-09T07:11:26.552Z,14.67
2018-04-09T07:13:55.606Z,14.60
2018-04-09T07:16:23.100Z,14.83
2018-04-09T07:18:50.643Z,15.83
2018-04-09T07:21:18.160Z,14.77
2018-04-09T07:23:45.693Z,14.83
2018-04-09T07:26:13.993Z,16.03
2018-04-09T07:28:41.492Z,14.90
2018-04-09T07:31:09.045Z,14.80
2018-04-09T07:33:36.572Z,16.63
2018-04-09T07:36:04.108Z,15.73
2018-04-09T07:38:31.631Z,15.43
2018-04-09T07:40:59.148Z,16.20
2018-04-09T07:43:26.639Z,17.37
2018-04-09T07:45:54.174Z,15.70
2018-04-09T07:48:21.705Z,17.80
2018-04-09T07:50:49.223Z,17.20
2018-04-09T07:53:16.772Z,18.70
2018-04-09T07:55:45.045Z,18.83
2018-04-09T07:58:12.570Z,18.10
2018-04-09T08:00:40.077Z,18.20
2018-04-09T08:03:08.392Z,16.37
2018-04-09T08:05:35.896Z,18.17
2018-04-09T08:08:03.437Z,18.57
2018-04-09T08:10:30.954Z,18.00
2018-04-09T08:12:58.484Z,17.50
2018-04-09T08:15:26.760Z,18.60
2018-04-09T08:17:55.050Z,18.40
2018-04-09T08:20:23.317Z,20.07
2018-04-09T08:22:51.624Z,18.93
2018-04-09T08:25:19.128Z,17.10
2018-04-09T08:27:46.687Z,19.23
2018-04-09T08:30:14.989Z,16.43
2018-04-09T08:32:43.290Z,19.10
2018-04-09T08:35:10.816Z,18.07
2018-04-09T08:37:39.104Z,18.10
2018-04-09T08:40:07.363Z,18.77
2018-04-09T08:42:35.731Z,16.27
2018-04-09T08:45:04.109Z,18.47
2018-04-09T08:47:31.604Z,19.73
2018-04-09T08:49:59.154Z,17.70
2018-04-09T08:52:26.696Z,18.73
2018-04-09T08:54:54.250Z,16.10
2018-04-09T08:57:22.547Z,17.47
2018-04-09T08:59:50.071Z,17.33
2018-04-09T09:02:17.578Z,18.63
2018-04-09T09:04:45.101Z,18.70
2018-04-09T09:07:13.393Z,17.00
2018-04-09T09:09:40.947Z,17.90
2018-04-09T09:12:09.217Z,18.90
2018-04-09T09:14:37.511Z,17.20
2018-04-09T09:17:05.011Z,16.97
2018-04-09T09:19:32.584Z,17.37
2018-04-09T09:22:00.099Z,19.87
2018-04-09T09:24:27.611Z,18.37
2018-04-09T09:26:55.917Z,16.20
2018-04-09T09:29:23.412Z,14.67
2018-04-09T09:31:50.941Z,14.80
2018-04-09T09:34:18.444Z,14.40
2018-04-09T09:36:46.040Z,17.30
2018-04-09T09:39:13.549Z,15.73
2018-04-09T09:41:41.077Z,16.67
2018-04-09T09:44:08.567Z,14.40
2018-04-09T09:46:36.105Z,12.93
2018-04-09T09:49:03.611Z,13.80
2018-04-09T09:51:31.930Z,12.27
2018-04-09T09:53:59.465Z,14.10
2018-04-09T09:56:26.960Z,15.00
2018-04-09T09:58:54.464Z,13.67
2018-04-09T10:01:27.676Z,13.57
2018-04-09T10:03:55.207Z,15.30
2018-04-09T10:06:23.501Z,13.50
2018-04-09T10:08:51.031Z,12.50
2018-04-09T10:11:18.544Z,12.87
2018-04-09T10:13:46.063Z,13.37
2018-04-09T10:16:14.364Z,11.50
2018-04-09T10:18:41.892Z,13.13
2018-04-09T10:21:10.212Z,13.77
2018-04-09T10:23:37.719Z,13.00
2018-04-09T10:26:05.255Z,11.60
2018-04-09T10:28:32.768Z,11.60
2018-04-09T10:31:00.296Z,11.70
2018-04-09T10:33:28.569Z,9.67
2018-04-09T10:35:56.861Z,11.30
2018-04-09T10:38:25.133Z,11.83
2018-04-09T10:40:53.438Z,10.73
2018-04-09T10:43:20.946Z,12.80
2018-04-09T10:45:48.481Z,11.57
2018-04-09T10:48:16.024Z,10.33
2018-04-09T10:50:43.536Z,11.60
2018-04-09T10:53:11.820Z,12.53
2018-04-09T10:55:39.364Z,9.63
2018-04-09T10:58:06.940Z,9.80
2018-04-09T11:00:34.467Z,8.83
2018-04-09T11:03:02.029Z,9.67
2018-04-09T11:05:29.526Z,10.30
2018-04-09T11:07:57.068Z,10.03
2018-04-09T11:10:25.328Z,10.43
2018-04-09T11:12:53.640Z,12.40
2018-04-09T11:15:21.197Z,9.87
2018-04-09T11:17:49.484Z,10.37
2018-04-09T11:20:16.994Z,9.60
2018-04-09T11:22:45.261Z,8.90
2018-04-09T11:25:12.791Z,7.87
2018-04-09T11:27:40.311Z,7.07
2018-04-09T11:30:07.876Z,7.37
2018-04-09T11:32:35.377Z,7.53
2018-04-09T11:35:02.896Z,6.30
2018-04-09T11:37:30.422Z,6.50
2018-04-09T11:39:58.737Z,8.10
2018-04-09T11:42:26.254Z,6.37
2018-04-09T11:44:54.562Z,6.07
2018-04-09T11:47:22.121Z,6.53
2018-04-09T11:49:49.623Z,4.97
2018-04-09T11:52:17.160Z,5.10
2018-04-09T11:54:44.663Z,5.33
2018-04-09T11:57:12.975Z,5.30
2018-04-09T11:59:40.467Z,6.07
2018-04-09T12:02:08.003Z,6.20
2018-04-09T12:04:35.528Z,6.23
2018-04-09T12:07:03.854Z,5.70
2018-04-09T12:09:31.367Z,6.40
2018-04-09T12:11:58.876Z,6.83
2018-04-09T12:14:26.426Z,5.73
2018-04-09T12:16:53.958Z,5.47
2018-04-09T12:19:21.484Z,6.33
2018-04-09T12:21:49.739Z,5.93
2018-04-09T12:24:17.257Z,6.63
2018-04-09T12:26:44.755Z,6.73
2018-04-09T12:29:12.293Z,5.47
2018-04-09T12:31:39.803Z,5.40
2018-04-09T12:34:07.345Z,6.27
2018-04-09T12:36:35.616Z,5.20
2018-04-09T12:39:03.901Z,6.43
2018-04-09T12:41:32.170Z,5.40
2018-04-09T12:44:00.470Z,6.60
2018-04-09T12:46:27.966Z,5.27
2018-04-09T12:48:55.472Z,5.90
2018-04-09T12:51:23.758Z,5.07
2018-04-09T12:53:51.282Z,5.87
2018-04-09T12:56:18.839Z,6.10
2018-04-09T12:58:47.139Z,5.90
2018-04-09T13:01:14.670Z,5.37
2018-04-09T13:03:42.945Z,4.90
2018-04-09T13:06:10.496Z,5.97
2018-04-09T13:08:38.002Z,5.80
2018-04-09T13:11:05.538Z,7.23
2018-04-09T13:13:33.802Z,6.77
2018-04-09T13:16:02.127Z,7.40
2018-04-09T13:18:29.628Z,6.83
2018-04-09T13:20:57.161Z,7.40
2018-04-09T13:23:24.658Z,7.80
2018-04-09T13:25:53.038Z,6.57
2018-04-09T13:28:21.301Z,6.63
2018-04-09T13:30:49.582Z,6.63
2018-04-09T13:33:17.871Z,4.97
2018-04-09T13:35:45.461Z,5.03
2018-04-09T13:38:12.924Z,5.50
2018-04-09T13:40:40.453Z,5.47
2018-04-09T13:43:07.987Z,5.77
2018-04-09T13:45:36.260Z,6.47
2018-04-09T13:48:04.560Z,7.27
2018-04-09T13:50:32.054Z,6.67
2018-04-09T13:52:59.578Z,7.70
2018-04-09T13:55:27.095Z,6.70
2018-04-09T13:57:54.621Z,6.83
2018-04-09T14:00:22.110Z,6.23
2018-04-09T14:02:50.408Z,6.70
2018-04-09T14:05:18.672Z,6.70
2018-04-09T14:07:46.981Z,6.40
2018-04-09T14:10:14.496Z,6.20
2018-04-09T14:12:42.794Z,5.67
2018-04-09T14:15:10.304Z,6.23
2018-04-09T14:17:37.836Z,5.37
2018-04-09T14:20:05.333Z,6.63
2018-04-09T14:22:32.826Z,6.70
2018-04-09T14:25:01.126Z,7.03
2018-04-09T14:27:28.636Z,5.80
2018-04-09T14:29:56.174Z,6.07
2018-04-09T14:32:23.676Z,5.97
2018-04-09T14:34:51.966Z,5.87
2018-04-09T14:37:19.505Z,5.63
2018-04-09T14:39:47.810Z,6.03
2018-04-09T14:42:15.314Z,5.90
2018-04-09T14:44:42.801Z,5.17
2018-04-09T14:47:10.333Z,6.07
2018-04-09T14:49:37.840Z,5.50
2018-04-09T14:52:05.406Z,6.43
2018-04-09T14:54:32.907Z,6.77
2018-04-09T14:57:00.423Z,6.03
2018-04-09T14:59:27.921Z,6.93
2018-04-09T15:01:55.447Z,5.20
2018-04-09T15:04:22.958Z,5.37
2018-04-09T15:06:51.268Z,5.30
2018-04-09T15:09:18.802Z,5.53
2018-04-09T15:11:46.310Z,5.13
2018-04-09T15:14:13.832Z,6.07
2018-04-09T15:16:41.337Z,5.90
2018-04-09T15:19:08.858Z,6.60
2018-04-09T15:21:36.355Z,5.57
2018-04-09T15:24:03.904Z,5.80
2018-04-09T15:26:31.438Z,5.90
2018-04-09T15:28:58.979Z,5.70
2018-04-09T15:31:26.499Z,5.60
2018-04-09T15:33:55.663Z,6.47
2018-04-09T15:36:23.195Z,7.60
2018-04-09T15:38:50.725Z,6.87
2018-04-09T15:41:19.141Z,6.63
2018-04-09T15:43:46.701Z,7.40
2018-04-09T15:46:14.214Z,6.53
2018-04-09T15:48:42.500Z,7.40
2018-04-09T15:51:10.030Z,6.17
2018-04-09T15:53:37.526Z,7.00
2018-04-09T15:56:05.052Z,6.63
2018-04-09T15:58:32.543Z,7.13
2018-04-09T16:01:00.051Z,6.43
2018-04-09T16:03:27.612Z,5.93
2018-04-09T16:05:55.137Z,6.17
2018-04-09T16:08:22.663Z,6.20
2018-04-09T16:10:50.202Z,5.90
2018-04-09T16:13:18.500Z,5.03
2018-04-09T16:15:46.050Z,4.83
2018-04-09T16:18:14.367Z,6.40
2018-04-09T16:20:41.850Z,4.50
2018-04-09T16:23:09.386Z,4.63
2018-04-09T16:25:36.893Z,4.27
2018-04-09T16:28:05.204Z,4.17
2018-04-09T16:30:32.727Z,5.27
2018-04-09T16:33:01.035Z,3.53
2018-04-09T16:35:28.560Z,4.20
2018-04-09T16:37:56.872Z,5.23
2018-04-09T16:40:24.388Z,4.83
2018-04-09T16:42:52.704Z,3.80
2018-04-09T16:45:20.218Z,4.43
2018-04-09T16:47:48.501Z,4.50
2018-04-09T16:50:16.812Z,4.30
2018-04-09T16:52:44.327Z,4.80
2018-04-09T16:55:12.660Z,5.07
2018-04-09T16:57:40.167Z,5.40
2018-04-09T17:00:08.466Z,5.30
2018-04-09T17:02:35.969Z,4.97
2018-04-09T17:05:03.551Z,5.50
2018-04-09T17:07:31.836Z,4.53
2018-04-09T17:10:00.155Z,5.90
2018-04-09T17:12:27.680Z,7.00
2018-04-09T17:14:55.989Z,6.00
2018-04-09T17:17:23.498Z,5.90
2018-04-09T17:19:51.799Z,5.87
2018-04-09T17:22:20.101Z,6.00
2018-04-09T17:24:47.620Z,6.87
2018-04-09T17:27:15.922Z,6.60
2018-04-09T17:29:43.418Z,7.33
2018-04-09T17:34:44.901Z,7.27
2018-04-09T17:37:12.544Z,7.77
2018-04-09T17:39:40.072Z,8.77
2018-04-09T17:42:07.637Z,9.27
2018-04-09T17:44:35.153Z,10.73
2018-04-09T17:47:03.465Z,9.97
2018-04-09T17:49:30.977Z,11.87
2018-04-09T17:51:59.284Z,11.50
2018-04-09T17:54:26.812Z,13.00
2018-04-09T17:56:55.105Z,11.90
2018-04-09T17:59:22.621Z,11.00
2018-04-09T18:01:50.186Z,12.57
2018-04-09T18:04:17.735Z,12.60
2018-04-09T18:06:45.252Z,12.97
2018-04-09T18:09:12.793Z,11.53
2018-04-09T18:11:40.328Z,12.20
2018-04-09T18:14:08.655Z,13.23
2018-04-09T18:16:36.170Z,12.70
2018-04-09T18:19:04.477Z,11.93
2018-04-09T18:21:31.990Z,11.97
2018-04-09T18:23:59.552Z,12.60
2018-04-09T18:26:27.093Z,11.93
2018-04-09T18:28:54.647Z,12.03
2018-04-09T18:31:22.152Z,11.00
2018-04-09T18:33:49.673Z,11.23
2018-04-09T18:36:17.996Z,10.87
2018-04-09T18:38:45.862Z,11.90
2018-04-09T18:41:13.450Z,12.07
2018-04-09T18:43:40.998Z,13.53
2018-04-09T18:46:08.561Z,12.57
2018-04-09T18:48:36.075Z,14.27
2018-04-09T18:51:04.450Z,13.60
2018-04-09T18:53:32.724Z,13.10
2018-04-09T18:56:01.025Z,12.20
2018-04-09T18:58:28.603Z,13.10
2018-04-09T19:00:56.160Z,13.23
2018-04-09T19:03:23.666Z,14.13
2018-04-09T19:05:51.979Z,13.77
2018-04-09T19:08:19.524Z,13.40
2018-04-09T19:10:47.832Z,12.47
2018-04-09T19:13:15.354Z,11.93
2018-04-09T19:15:43.705Z,12.33
2018-04-09T19:18:11.254Z,11.17
2018-04-09T19:20:38.806Z,13.23
2018-04-09T19:23:06.357Z,11.60
2018-04-09T19:25:33.909Z,12.37
2018-04-09T19:28:01.443Z,12.53
2018-04-09T19:30:28.993Z,12.73
2018-04-09T19:32:56.577Z,13.57
2018-04-09T19:35:24.122Z,13.43
2018-04-09T19:37:57.275Z,12.00
2018-04-09T19:40:31.291Z,11.13
2018-04-09T19:42:58.822Z,12.27
2018-04-09T19:45:26.482Z,12.00
2018-04-09T19:47:54.832Z,11.23
2018-04-09T19:50:22.359Z,10.53
2018-04-09T19:52:49.909Z,10.80
2018-04-09T19:55:18.235Z,12.30
2018-04-09T19:57:45.799Z,11.40
2018-04-09T20:00:13.389Z,10.57
2018-04-09T20:02:41.767Z,10.20
2018-04-09T20:05:10.087Z,11.60
2018-04-09T20:07:37.643Z,9.83
2018-04-09T20:10:05.158Z,11.00
2018-04-09T20:12:33.426Z,8.67
2018-04-09T20:15:01.004Z,11.80
2018-04-09T20:17:29.315Z,11.20
2018-04-09T20:19:56.909Z,9.77
2018-04-09T20:22:24.420Z,9.57
2018-04-09T20:24:51.996Z,9.83
2018-04-09T20:27:19.517Z,9.73
2018-04-09T20:29:47.875Z,10.10
2018-04-09T20:32:15.390Z,10.47
2018-04-09T20:34:42.935Z,10.80
2018-04-09T20:37:10.474Z,9.57
2018-04-09T20:39:37.999Z,9.83
2018-04-09T20:42:05.550Z,10.10
2018-04-09T20:44:33.049Z,9.90
2018-04-09T20:47:00.619Z,9.90
2018-04-09T20:49:28.150Z,6.20
2018-04-09T20:51:56.460Z,8.37
2018-04-09T20:54:23.967Z,8.53
2018-04-09T20:56:51.520Z,9.13
2018-04-09T20:59:19.777Z,7.83
2018-04-09T21:01:47.302Z,8.97
2018-04-09T21:04:14.813Z,9.77
2018-04-09T21:06:42.353Z,9.03
2018-04-09T21:09:09.882Z,9.37
2018-04-09T21:11:37.473Z,8.30
2018-04-09T21:14:04.961Z,8.83
2018-04-09T21:16:33.279Z,8.50
2018-04-09T21:19:00.806Z,9.10
2018-04-09T21:21:28.384Z,9.83
2018-04-09T21:23:55.882Z,7.83
2018-04-09T21:26:23.407Z,8.30
2018-04-09T21:28:50.958Z,8.57
2018-04-09T21:31:18.469Z,7.87
2018-04-09T21:33:46.005Z,10.60
2018-04-09T21:36:13.518Z,9.00
2018-04-09T21:38:41.048Z,7.43
2018-04-09T21:41:08.563Z,11.20
2018-04-09T21:43:36.117Z,7.37
2018-04-09T21:46:03.642Z,8.10
2018-04-09T21:48:31.923Z,8.60
2018-04-09T21:50:59.423Z,8.00
2018-04-09T21:53:26.957Z,8.20
2018-04-09T21:55:54.449Z,8.87
2018-04-09T21:58:21.939Z,8.93
2018-04-09T22:00:50.231Z,10.50
2018-04-09T22:03:17.763Z,9.23
2018-04-09T22:05:46.049Z,7.77
2018-04-09T22:08:14.320Z,8.40
2018-04-09T22:10:42.616Z,8.70
2018-04-09T22:13:10.118Z,8.00
2018-04-09T22:15:37.632Z,8.53
2018-04-09T22:18:05.178Z,10.00
2018-04-09T22:20:33.459Z,10.63
2018-04-09T22:23:01.005Z,9.17
2018-04-09T22:25:29.277Z,9.77
2018-04-09T22:27:57.562Z,9.40
2018-04-09T22:30:25.848Z,9.50
2018-04-09T22:32:53.390Z,9.60
2018-04-09T22:35:20.914Z,8.73
2018-04-09T22:37:48.437Z,9.27
2018-04-09T22:40:15.943Z,8.77
2018-04-09T22:42:45.005Z,9.03
2018-04-09T22:45:12.514Z,9.60
2018-04-09T22:47:40.832Z,8.87
2018-04-09T22:50:08.328Z,9.77
2018-04-09T22:52:35.910Z,8.50
2018-04-09T22:55:03.413Z,9.23
2018-04-09T22:57:30.918Z,9.80
2018-04-09T22:59:59.202Z,9.17
2018-04-09T23:02:27.465Z,8.70
2018-04-09T23:04:55.734Z,8.67
2018-04-09T23:07:24.033Z,8.80
2018-04-09T23:09:51.523Z,8.43
2018-04-09T23:12:19.037Z,9.00
2018-04-09T23:14:47.291Z,8.90
2018-04-09T23:17:14.810Z,8.93
2018-04-09T23:19:42.310Z,9.73
2018-04-09T23:22:09.830Z,8.50
2018-04-09T23:24:37.326Z,8.77
2018-04-09T23:27:04.844Z,7.90
2018-04-09T23:29:32.352Z,8.17
2018-04-09T23:32:00.646Z,9.03
2018-04-09T23:34:28.153Z,10.03
2018-04-09T23:36:55.689Z,8.47
2018-04-09T23:39:23.240Z,9.17
2018-04-09T23:41:50.769Z,10.27
2018-04-09T23:44:19.073Z,7.90
2018-04-09T23:46:46.575Z,9.40
2018-04-09T23:49:14.095Z,8.90
2018-04-09T23:51:41.632Z,8.40
2018-04-09T23:54:09.178Z,8.50
2018-04-09T23:56:37.471Z,8.27
2018-04-09T23:59:05.009Z,8.97
